sensor_id;sensor_type;location;lat;lon;timestamp;temperature;humidity
59469;DHT22;45277;52.768;18.262;2023-04-16T00:01:11;8.80;99.90
59469;DHT22;45277;52.768;18.262;2023-04-16T00:02:42;8.80;99.90
59469;DHT22;45277;52.768;18.262;2023-04-16T00:04:13;8.70;99.90
59469;DHT22;45277;52.768;18.262;2023-04-16T00:05:45;8.80;99.90
59469;DHT22;45277;52.768;18.262;2023-04-16T00:07:17;8.70;99.90
59469;DHT22;45277;52.768;18.262;2023-04-16T00:08:48;8.70;99.90
59469;DHT22;45277;52.768;18.262;2023-04-16T00:10:21;8.70;99.90
59469;DHT22;45277;52.768;18.262;2023-04-16T00:11:53;8.70;99.90
59469;DHT22;45277;52.768;18.262;2023-04-16T00:13:24;8.70;99.90
59469;DHT22;45277;52.768;18.262;2023-04-16T00:14:58;8.70;99.90
59469;DHT22;45277;52.768;18.262;2023-04-16T00:16:29;8.70;99.90
59469;DHT22;45277;52.768;18.262;2023-04-16T00:18:01;8.70;99.90
59469;DHT22;45277;52.768;18.262;2023-04-16T00:19:32;8.70;99.90
59469;DHT22;45277;52.768;18.262;2023-04-16T00:21:04;8.70;99.90
59469;DHT22;45277;52.768;18.262;2023-04-16T00:22:35;8.70;99.90
59469;DHT22;45277;52.768;18.262;2023-04-16T00:24:07;8.70;99.90
59469;DHT22;45277;52.768;18.262;2023-04-16T00:25:38;8.70;99.90
59469;DHT22;45277;52.768;18.262;2023-04-16T00:27:10;8.60;99.90
59469;DHT22;45277;52.768;18.262;2023-04-16T00:28:42;8.70;99.90
59469;DHT22;45277;52.768;18.262;2023-04-16T00:30:13;8.60;99.90
59469;DHT22;45277;52.768;18.262;2023-04-16T00:31:45;8.60;99.90
59469;DHT22;45277;52.768;18.262;2023-04-16T00:33:16;8.60;99.90
59469;DHT22;45277;52.768;18.262;2023-04-16T00:34:48;8.60;99.90
59469;DHT22;45277;52.768;18.262;2023-04-16T00:36:19;8.60;99.90
59469;DHT22;45277;52.768;18.262;2023-04-16T00:37:51;8.60;99.90
59469;DHT22;45277;52.768;18.262;2023-04-16T00:39:22;8.60;99.90
59469;DHT22;45277;52.768;18.262;2023-04-16T00:40:54;8.60;99.90
59469;DHT22;45277;52.768;18.262;2023-04-16T00:42:28;8.60;99.90
59469;DHT22;45277;52.768;18.262;2023-04-16T00:43:59;8.60;99.90
59469;DHT22;45277;52.768;18.262;2023-04-16T00:45:31;8.60;99.90
59469;DHT22;45277;52.768;18.262;2023-04-16T00:47:03;8.60;99.90
59469;DHT22;45277;52.768;18.262;2023-04-16T00:48:36;8.60;99.90
59469;DHT22;45277;52.768;18.262;2023-04-16T00:50:10;8.60;99.90
59469;DHT22;45277;52.768;18.262;2023-04-16T00:51:42;8.60;99.90
59469;DHT22;45277;52.768;18.262;2023-04-16T00:53:14;8.60;99.90
59469;DHT22;45277;52.768;18.262;2023-04-16T00:54:45;8.60;99.90
59469;DHT22;45277;52.768;18.262;2023-04-16T00:56:18;8.60;99.90
59469;DHT22;45277;52.768;18.262;2023-04-16T00:57:50;8.60;99.90
59469;DHT22;45277;52.768;18.262;2023-04-16T00:59:22;8.60;99.90
59469;DHT22;45277;52.768;18.262;2023-04-16T01:00:53;8.60;99.90
59469;DHT22;45277;52.768;18.262;2023-04-16T01:02:25;8.60;99.90
59469;DHT22;45277;52.768;18.262;2023-04-16T01:03:56;8.50;99.90
59469;DHT22;45277;52.768;18.262;2023-04-16T01:05:29;8.50;99.90
59469;DHT22;45277;52.768;18.262;2023-04-16T01:07:00;8.60;99.90
59469;DHT22;45277;52.768;18.262;2023-04-16T01:08:32;8.50;99.90
59469;DHT22;45277;52.768;18.262;2023-04-16T01:10:04;8.50;99.90
59469;DHT22;45277;52.768;18.262;2023-04-16T01:11:36;8.50;99.90
59469;DHT22;45277;52.768;18.262;2023-04-16T01:13:08;8.50;99.90
59469;DHT22;45277;52.768;18.262;2023-04-16T01:14:39;8.50;99.90
59469;DHT22;45277;52.768;18.262;2023-04-16T01:16:11;8.50;99.90
59469;DHT22;45277;52.768;18.262;2023-04-16T01:17:44;8.50;99.90
59469;DHT22;45277;52.768;18.262;2023-04-16T01:19:16;8.50;99.90
59469;DHT22;45277;52.768;18.262;2023-04-16T01:20:49;8.50;99.90
59469;DHT22;45277;52.768;18.262;2023-04-16T01:22:20;8.50;99.90
59469;DHT22;45277;52.768;18.262;2023-04-16T01:23:52;8.50;99.90
59469;DHT22;45277;52.768;18.262;2023-04-16T01:25:23;8.50;99.90
59469;DHT22;45277;52.768;18.262;2023-04-16T01:26:57;8.50;99.90
59469;DHT22;45277;52.768;18.262;2023-04-16T01:28:29;8.50;99.90
59469;DHT22;45277;52.768;18.262;2023-04-16T01:30:00;8.50;99.90
59469;DHT22;45277;52.768;18.262;2023-04-16T01:31:32;8.50;99.90
59469;DHT22;45277;52.768;18.262;2023-04-16T01:33:03;8.50;99.90
59469;DHT22;45277;52.768;18.262;2023-04-16T01:34:35;8.50;99.90
59469;DHT22;45277;52.768;18.262;2023-04-16T01:36:06;8.50;99.90
59469;DHT22;45277;52.768;18.262;2023-04-16T01:37:38;8.50;99.90
59469;DHT22;45277;52.768;18.262;2023-04-16T01:39:09;8.50;99.90
59469;DHT22;45277;52.768;18.262;2023-04-16T01:40:44;8.50;99.90
59469;DHT22;45277;52.768;18.262;2023-04-16T01:42:15;8.50;99.90
59469;DHT22;45277;52.768;18.262;2023-04-16T01:43:47;8.50;99.90
59469;DHT22;45277;52.768;18.262;2023-04-16T01:45:18;8.50;99.90
59469;DHT22;45277;52.768;18.262;2023-04-16T01:46:50;8.50;99.90
59469;DHT22;45277;52.768;18.262;2023-04-16T01:48:21;8.50;99.90
59469;DHT22;45277;52.768;18.262;2023-04-16T01:49:53;8.50;99.90
59469;DHT22;45277;52.768;18.262;2023-04-16T01:51:24;8.50;99.90
59469;DHT22;45277;52.768;18.262;2023-04-16T01:52:57;8.50;99.90
59469;DHT22;45277;52.768;18.262;2023-04-16T01:54:28;8.50;99.90
59469;DHT22;45277;52.768;18.262;2023-04-16T01:56:00;8.50;99.90
59469;DHT22;45277;52.768;18.262;2023-04-16T01:57:31;8.50;99.90
59469;DHT22;45277;52.768;18.262;2023-04-16T01:59:02;8.40;99.90
59469;DHT22;45277;52.768;18.262;2023-04-16T02:00:35;8.40;99.90
59469;DHT22;45277;52.768;18.262;2023-04-16T02:02:10;8.40;99.90
59469;DHT22;45277;52.768;18.262;2023-04-16T02:03:42;8.40;99.90
59469;DHT22;45277;52.768;18.262;2023-04-16T02:05:14;8.40;99.90
59469;DHT22;45277;52.768;18.262;2023-04-16T02:06:45;8.40;99.90
59469;DHT22;45277;52.768;18.262;2023-04-16T02:08:17;8.40;99.90
59469;DHT22;45277;52.768;18.262;2023-04-16T02:09:49;8.40;99.90
59469;DHT22;45277;52.768;18.262;2023-04-16T02:11:23;8.40;99.90
59469;DHT22;45277;52.768;18.262;2023-04-16T02:12:54;8.40;99.90
59469;DHT22;45277;52.768;18.262;2023-04-16T02:14:26;8.40;99.90
59469;DHT22;45277;52.768;18.262;2023-04-16T02:15:58;8.40;99.90
59469;DHT22;45277;52.768;18.262;2023-04-16T02:17:29;8.40;99.90
59469;DHT22;45277;52.768;18.262;2023-04-16T02:19:01;8.40;99.90
59469;DHT22;45277;52.768;18.262;2023-04-16T02:20:33;8.40;99.90
59469;DHT22;45277;52.768;18.262;2023-04-16T02:22:06;8.40;99.90
59469;DHT22;45277;52.768;18.262;2023-04-16T02:23:38;8.40;99.90
59469;DHT22;45277;52.768;18.262;2023-04-16T02:25:11;8.40;99.90
59469;DHT22;45277;52.768;18.262;2023-04-16T02:26:44;8.30;99.90
59469;DHT22;45277;52.768;18.262;2023-04-16T02:28:16;8.30;99.90
59469;DHT22;45277;52.768;18.262;2023-04-16T02:29:47;8.40;99.90
59469;DHT22;45277;52.768;18.262;2023-04-16T02:31:19;8.30;99.90
59469;DHT22;45277;52.768;18.262;2023-04-16T02:32:52;8.30;99.90
59469;DHT22;45277;52.768;18.262;2023-04-16T02:34:24;8.40;99.90
59469;DHT22;45277;52.768;18.262;2023-04-16T02:35:55;8.30;99.90
59469;DHT22;45277;52.768;18.262;2023-04-16T02:37:27;8.40;99.90
59469;DHT22;45277;52.768;18.262;2023-04-16T02:38:58;8.30;99.90
59469;DHT22;45277;52.768;18.262;2023-04-16T02:40:30;8.30;99.90
59469;DHT22;45277;52.768;18.262;2023-04-16T02:42:02;8.30;99.90
59469;DHT22;45277;52.768;18.262;2023-04-16T02:43:33;8.30;99.90
59469;DHT22;45277;52.768;18.262;2023-04-16T02:45:05;8.30;99.90
59469;DHT22;45277;52.768;18.262;2023-04-16T02:46:37;8.30;99.90
59469;DHT22;45277;52.768;18.262;2023-04-16T02:48:08;8.30;99.90
59469;DHT22;45277;52.768;18.262;2023-04-16T02:49:40;8.30;99.90
59469;DHT22;45277;52.768;18.262;2023-04-16T02:51:11;8.30;99.90
59469;DHT22;45277;52.768;18.262;2023-04-16T02:52:43;8.30;99.90
59469;DHT22;45277;52.768;18.262;2023-04-16T02:54:14;8.30;99.90
59469;DHT22;45277;52.768;18.262;2023-04-16T02:55:49;8.30;99.90
59469;DHT22;45277;52.768;18.262;2023-04-16T02:57:22;8.30;99.90
59469;DHT22;45277;52.768;18.262;2023-04-16T02:58:53;8.30;99.90
59469;DHT22;45277;52.768;18.262;2023-04-16T03:00:28;8.30;99.90
59469;DHT22;45277;52.768;18.262;2023-04-16T03:02:00;8.30;99.90
59469;DHT22;45277;52.768;18.262;2023-04-16T03:03:31;8.30;99.90
59469;DHT22;45277;52.768;18.262;2023-04-16T03:05:03;8.30;99.90
59469;DHT22;45277;52.768;18.262;2023-04-16T03:06:35;8.30;99.90
59469;DHT22;45277;52.768;18.262;2023-04-16T03:08:06;8.30;99.90
59469;DHT22;45277;52.768;18.262;2023-04-16T03:09:38;8.30;99.90
59469;DHT22;45277;52.768;18.262;2023-04-16T03:11:10;8.30;99.90
59469;DHT22;45277;52.768;18.262;2023-04-16T03:12:41;8.30;99.90
59469;DHT22;45277;52.768;18.262;2023-04-16T03:14:13;8.30;99.90
59469;DHT22;45277;52.768;18.262;2023-04-16T03:15:48;8.20;99.90
59469;DHT22;45277;52.768;18.262;2023-04-16T03:17:19;8.20;99.90
59469;DHT22;45277;52.768;18.262;2023-04-16T03:18:51;8.20;99.90
59469;DHT22;45277;52.768;18.262;2023-04-16T03:20:23;8.20;99.90
59469;DHT22;45277;52.768;18.262;2023-04-16T03:21:54;8.20;99.90
59469;DHT22;45277;52.768;18.262;2023-04-16T03:23:26;8.30;99.90
59469;DHT22;45277;52.768;18.262;2023-04-16T03:24:58;8.20;99.90
59469;DHT22;45277;52.768;18.262;2023-04-16T03:26:29;8.20;99.90
59469;DHT22;45277;52.768;18.262;2023-04-16T03:28:01;8.20;99.90
59469;DHT22;45277;52.768;18.262;2023-04-16T03:29:36;8.20;99.90
59469;DHT22;45277;52.768;18.262;2023-04-16T03:31:08;8.20;99.90
59469;DHT22;45277;52.768;18.262;2023-04-16T03:32:40;8.20;99.90
59469;DHT22;45277;52.768;18.262;2023-04-16T03:34:11;8.20;99.90
59469;DHT22;45277;52.768;18.262;2023-04-16T03:35:43;8.20;99.90
59469;DHT22;45277;52.768;18.262;2023-04-16T03:37:15;8.20;99.90
59469;DHT22;45277;52.768;18.262;2023-04-16T03:38:46;8.20;99.90
59469;DHT22;45277;52.768;18.262;2023-04-16T03:40:18;8.20;99.90
59469;DHT22;45277;52.768;18.262;2023-04-16T03:41:49;8.20;99.90
59469;DHT22;45277;52.768;18.262;2023-04-16T03:43:21;8.20;99.90
59469;DHT22;45277;52.768;18.262;2023-04-16T03:44:52;8.20;99.90
59469;DHT22;45277;52.768;18.262;2023-04-16T03:46:24;8.20;99.90
59469;DHT22;45277;52.768;18.262;2023-04-16T03:47:55;8.20;99.90
59469;DHT22;45277;52.768;18.262;2023-04-16T03:49:27;8.20;99.90
59469;DHT22;45277;52.768;18.262;2023-04-16T03:50:58;8.20;99.90
59469;DHT22;45277;52.768;18.262;2023-04-16T03:52:30;8.20;99.90
59469;DHT22;45277;52.768;18.262;2023-04-16T03:54:01;8.20;99.90
59469;DHT22;45277;52.768;18.262;2023-04-16T03:55:34;8.20;99.90
59469;DHT22;45277;52.768;18.262;2023-04-16T03:57:06;8.20;99.90
59469;DHT22;45277;52.768;18.262;2023-04-16T03:58:37;8.20;99.90
59469;DHT22;45277;52.768;18.262;2023-04-16T04:00:09;8.20;99.90
59469;DHT22;45277;52.768;18.262;2023-04-16T04:01:41;8.20;99.90
59469;DHT22;45277;52.768;18.262;2023-04-16T04:03:12;8.20;99.90
59469;DHT22;45277;52.768;18.262;2023-04-16T04:04:47;8.20;99.90
59469;DHT22;45277;52.768;18.262;2023-04-16T04:06:18;8.20;99.90
59469;DHT22;45277;52.768;18.262;2023-04-16T04:07:49;8.20;99.90
59469;DHT22;45277;52.768;18.262;2023-04-16T04:09:21;8.20;99.90
59469;DHT22;45277;52.768;18.262;2023-04-16T04:10:52;8.20;99.90
59469;DHT22;45277;52.768;18.262;2023-04-16T04:12:24;8.30;99.90
59469;DHT22;45277;52.768;18.262;2023-04-16T04:13:56;8.20;99.90
59469;DHT22;45277;52.768;18.262;2023-04-16T04:15:27;8.30;99.90
59469;DHT22;45277;52.768;18.262;2023-04-16T04:16:58;8.30;99.90
59469;DHT22;45277;52.768;18.262;2023-04-16T04:18:30;8.30;99.90
59469;DHT22;45277;52.768;18.262;2023-04-16T04:20:02;8.30;99.90
59469;DHT22;45277;52.768;18.262;2023-04-16T04:21:33;8.40;99.90
59469;DHT22;45277;52.768;18.262;2023-04-16T04:23:05;8.30;99.90
59469;DHT22;45277;52.768;18.262;2023-04-16T04:24:36;8.40;99.90
59469;DHT22;45277;52.768;18.262;2023-04-16T04:26:07;8.40;99.90
59469;DHT22;45277;52.768;18.262;2023-04-16T04:27:39;8.40;99.90
59469;DHT22;45277;52.768;18.262;2023-04-16T04:29:11;8.40;99.90
59469;DHT22;45277;52.768;18.262;2023-04-16T04:30:42;8.40;99.90
59469;DHT22;45277;52.768;18.262;2023-04-16T04:32:14;8.40;99.90
59469;DHT22;45277;52.768;18.262;2023-04-16T04:33:45;8.40;99.90
59469;DHT22;45277;52.768;18.262;2023-04-16T04:35:16;8.40;99.90
59469;DHT22;45277;52.768;18.262;2023-04-16T04:36:48;8.40;99.90
59469;DHT22;45277;52.768;18.262;2023-04-16T04:38:20;8.40;99.90
59469;DHT22;45277;52.768;18.262;2023-04-16T04:39:52;8.50;99.90
59469;DHT22;45277;52.768;18.262;2023-04-16T04:41:23;8.50;99.90
59469;DHT22;45277;52.768;18.262;2023-04-16T04:42:56;8.50;99.90
59469;DHT22;45277;52.768;18.262;2023-04-16T04:44:28;8.50;99.90
59469;DHT22;45277;52.768;18.262;2023-04-16T04:45:59;8.50;99.90
59469;DHT22;45277;52.768;18.262;2023-04-16T04:47:31;8.50;99.90
59469;DHT22;45277;52.768;18.262;2023-04-16T04:49:02;8.50;99.90
59469;DHT22;45277;52.768;18.262;2023-04-16T04:50:35;8.60;99.90
59469;DHT22;45277;52.768;18.262;2023-04-16T04:52:07;8.60;99.90
59469;DHT22;45277;52.768;18.262;2023-04-16T04:53:38;8.60;99.90
59469;DHT22;45277;52.768;18.262;2023-04-16T04:55:10;8.60;99.90
59469;DHT22;45277;52.768;18.262;2023-04-16T04:56:42;8.70;99.90
59469;DHT22;45277;52.768;18.262;2023-04-16T04:58:16;8.80;99.90
59469;DHT22;45277;52.768;18.262;2023-04-16T04:59:48;8.70;99.90
59469;DHT22;45277;52.768;18.262;2023-04-16T05:01:19;8.80;99.90
59469;DHT22;45277;52.768;18.262;2023-04-16T05:02:50;8.80;99.90
59469;DHT22;45277;52.768;18.262;2023-04-16T05:04:22;8.90;99.90
59469;DHT22;45277;52.768;18.262;2023-04-16T05:05:54;8.90;99.90
59469;DHT22;45277;52.768;18.262;2023-04-16T05:07:25;8.90;99.90
59469;DHT22;45277;52.768;18.262;2023-04-16T05:08:57;8.90;99.90
59469;DHT22;45277;52.768;18.262;2023-04-16T05:10:28;9.00;99.90
59469;DHT22;45277;52.768;18.262;2023-04-16T05:11:59;9.00;99.90
59469;DHT22;45277;52.768;18.262;2023-04-16T05:13:31;9.00;99.90
59469;DHT22;45277;52.768;18.262;2023-04-16T05:15:03;9.10;99.90
59469;DHT22;45277;52.768;18.262;2023-04-16T05:16:37;9.10;99.90
59469;DHT22;45277;52.768;18.262;2023-04-16T05:18:09;9.10;99.90
59469;DHT22;45277;52.768;18.262;2023-04-16T05:19:40;9.20;99.90
59469;DHT22;45277;52.768;18.262;2023-04-16T05:21:12;9.20;99.90
59469;DHT22;45277;52.768;18.262;2023-04-16T05:22:43;9.20;99.90
59469;DHT22;45277;52.768;18.262;2023-04-16T05:24:15;9.20;99.90
59469;DHT22;45277;52.768;18.262;2023-04-16T05:25:46;9.20;99.90
59469;DHT22;45277;52.768;18.262;2023-04-16T05:27:18;9.20;99.90
59469;DHT22;45277;52.768;18.262;2023-04-16T05:28:49;9.20;99.90
59469;DHT22;45277;52.768;18.262;2023-04-16T05:30:20;9.20;99.90
59469;DHT22;45277;52.768;18.262;2023-04-16T05:31:52;9.20;99.90
59469;DHT22;45277;52.768;18.262;2023-04-16T05:33:24;9.20;99.90
59469;DHT22;45277;52.768;18.262;2023-04-16T05:34:55;9.20;99.90
59469;DHT22;45277;52.768;18.262;2023-04-16T05:36:27;9.20;99.90
59469;DHT22;45277;52.768;18.262;2023-04-16T05:37:58;9.10;99.90
59469;DHT22;45277;52.768;18.262;2023-04-16T05:39:29;9.10;99.90
59469;DHT22;45277;52.768;18.262;2023-04-16T05:41:01;9.10;99.90
59469;DHT22;45277;52.768;18.262;2023-04-16T05:42:33;9.10;99.90
59469;DHT22;45277;52.768;18.262;2023-04-16T05:44:04;9.10;99.90
59469;DHT22;45277;52.768;18.262;2023-04-16T05:45:36;9.10;99.90
59469;DHT22;45277;52.768;18.262;2023-04-16T05:47:11;9.10;99.90
59469;DHT22;45277;52.768;18.262;2023-04-16T05:48:42;9.10;99.90
59469;DHT22;45277;52.768;18.262;2023-04-16T05:50:14;9.10;99.90
59469;DHT22;45277;52.768;18.262;2023-04-16T05:51:46;9.20;99.90
59469;DHT22;45277;52.768;18.262;2023-04-16T05:53:17;9.20;99.90
59469;DHT22;45277;52.768;18.262;2023-04-16T05:54:49;9.10;99.90
59469;DHT22;45277;52.768;18.262;2023-04-16T05:56:20;9.20;99.90
59469;DHT22;45277;52.768;18.262;2023-04-16T05:57:53;9.10;99.90
59469;DHT22;45277;52.768;18.262;2023-04-16T05:59:25;9.10;99.90
59469;DHT22;45277;52.768;18.262;2023-04-16T06:00:56;9.10;99.90
59469;DHT22;45277;52.768;18.262;2023-04-16T06:02:28;9.20;99.90
59469;DHT22;45277;52.768;18.262;2023-04-16T06:04:01;9.20;99.90
59469;DHT22;45277;52.768;18.262;2023-04-16T06:05:34;9.10;99.90
59469;DHT22;45277;52.768;18.262;2023-04-16T06:07:05;9.10;99.90
59469;DHT22;45277;52.768;18.262;2023-04-16T06:08:37;9.10;99.90
59469;DHT22;45277;52.768;18.262;2023-04-16T06:10:09;9.10;99.90
59469;DHT22;45277;52.768;18.262;2023-04-16T06:11:40;9.10;99.90
59469;DHT22;45277;52.768;18.262;2023-04-16T06:13:12;9.20;99.90
59469;DHT22;45277;52.768;18.262;2023-04-16T06:14:43;9.20;99.90
59469;DHT22;45277;52.768;18.262;2023-04-16T06:16:15;9.20;99.90
59469;DHT22;45277;52.768;18.262;2023-04-16T06:17:48;9.10;99.90
59469;DHT22;45277;52.768;18.262;2023-04-16T06:19:20;9.10;99.90
59469;DHT22;45277;52.768;18.262;2023-04-16T06:20:52;9.10;99.90
59469;DHT22;45277;52.768;18.262;2023-04-16T06:22:24;9.10;99.90
59469;DHT22;45277;52.768;18.262;2023-04-16T06:23:55;9.10;99.90
59469;DHT22;45277;52.768;18.262;2023-04-16T06:25:27;9.10;99.90
59469;DHT22;45277;52.768;18.262;2023-04-16T06:26:58;9.10;99.90
59469;DHT22;45277;52.768;18.262;2023-04-16T06:28:30;9.20;99.90
59469;DHT22;45277;52.768;18.262;2023-04-16T06:30:02;9.20;99.90
59469;DHT22;45277;52.768;18.262;2023-04-16T06:31:34;9.20;99.90
59469;DHT22;45277;52.768;18.262;2023-04-16T06:33:05;9.20;99.90
59469;DHT22;45277;52.768;18.262;2023-04-16T06:34:37;9.20;99.90
59469;DHT22;45277;52.768;18.262;2023-04-16T06:36:09;9.20;99.90
59469;DHT22;45277;52.768;18.262;2023-04-16T06:37:41;9.20;99.90
59469;DHT22;45277;52.768;18.262;2023-04-16T06:39:13;9.20;99.90
59469;DHT22;45277;52.768;18.262;2023-04-16T06:40:47;9.20;99.90
59469;DHT22;45277;52.768;18.262;2023-04-16T06:42:19;9.20;99.90
59469;DHT22;45277;52.768;18.262;2023-04-16T06:43:51;9.10;99.90
59469;DHT22;45277;52.768;18.262;2023-04-16T06:45:23;9.10;99.90
59469;DHT22;45277;52.768;18.262;2023-04-16T06:46:55;9.10;99.90
59469;DHT22;45277;52.768;18.262;2023-04-16T06:48:26;9.20;99.90
59469;DHT22;45277;52.768;18.262;2023-04-16T06:49:58;9.20;99.90
59469;DHT22;45277;52.768;18.262;2023-04-16T06:51:30;9.20;99.90
59469;DHT22;45277;52.768;18.262;2023-04-16T06:53:01;9.20;99.90
59469;DHT22;45277;52.768;18.262;2023-04-16T06:54:34;9.20;99.90
59469;DHT22;45277;52.768;18.262;2023-04-16T06:56:06;9.20;99.90
59469;DHT22;45277;52.768;18.262;2023-04-16T06:57:38;9.20;99.90
59469;DHT22;45277;52.768;18.262;2023-04-16T06:59:11;9.20;99.90
59469;DHT22;45277;52.768;18.262;2023-04-16T07:00:42;9.20;99.90
59469;DHT22;45277;52.768;18.262;2023-04-16T07:02:14;9.20;99.90
59469;DHT22;45277;52.768;18.262;2023-04-16T07:03:45;9.20;99.90
59469;DHT22;45277;52.768;18.262;2023-04-16T07:05:17;9.20;99.90
59469;DHT22;45277;52.768;18.262;2023-04-16T07:06:48;9.20;99.90
59469;DHT22;45277;52.768;18.262;2023-04-16T07:08:20;9.20;99.90
59469;DHT22;45277;52.768;18.262;2023-04-16T07:09:52;9.20;99.90
59469;DHT22;45277;52.768;18.262;2023-04-16T07:11:23;9.20;99.90
59469;DHT22;45277;52.768;18.262;2023-04-16T07:12:56;9.20;99.90
59469;DHT22;45277;52.768;18.262;2023-04-16T07:14:28;9.20;99.90
59469;DHT22;45277;52.768;18.262;2023-04-16T07:16:00;9.20;99.90
59469;DHT22;45277;52.768;18.262;2023-04-16T07:17:31;9.20;99.90
59469;DHT22;45277;52.768;18.262;2023-04-16T07:19:03;9.20;99.90
59469;DHT22;45277;52.768;18.262;2023-04-16T07:20:35;9.20;99.90
59469;DHT22;45277;52.768;18.262;2023-04-16T07:22:07;9.20;99.90
59469;DHT22;45277;52.768;18.262;2023-04-16T07:23:38;9.30;99.90
59469;DHT22;45277;52.768;18.262;2023-04-16T07:25:10;9.30;99.90
59469;DHT22;45277;52.768;18.262;2023-04-16T07:26:42;9.40;99.90
59469;DHT22;45277;52.768;18.262;2023-04-16T07:28:13;9.40;99.90
59469;DHT22;45277;52.768;18.262;2023-04-16T07:29:47;9.50;99.90
59469;DHT22;45277;52.768;18.262;2023-04-16T07:31:20;9.60;99.90
59469;DHT22;45277;52.768;18.262;2023-04-16T07:32:52;9.70;99.90
59469;DHT22;45277;52.768;18.262;2023-04-16T07:34:25;9.70;99.90
59469;DHT22;45277;52.768;18.262;2023-04-16T07:35:57;9.70;99.90
59469;DHT22;45277;52.768;18.262;2023-04-16T07:37:29;9.80;99.90
59469;DHT22;45277;52.768;18.262;2023-04-16T07:39:01;9.90;99.90
59469;DHT22;45277;52.768;18.262;2023-04-16T07:40:32;9.90;99.90
59469;DHT22;45277;52.768;18.262;2023-04-16T07:42:04;10.00;99.90
59469;DHT22;45277;52.768;18.262;2023-04-16T07:43:37;10.10;99.90
59469;DHT22;45277;52.768;18.262;2023-04-16T07:45:09;10.00;99.90
59469;DHT22;45277;52.768;18.262;2023-04-16T07:46:40;10.10;99.90
59469;DHT22;45277;52.768;18.262;2023-04-16T07:48:12;10.10;99.90
59469;DHT22;45277;52.768;18.262;2023-04-16T07:49:44;10.20;99.90
59469;DHT22;45277;52.768;18.262;2023-04-16T07:51:15;10.20;99.90
59469;DHT22;45277;52.768;18.262;2023-04-16T07:52:47;10.10;99.90
59469;DHT22;45277;52.768;18.262;2023-04-16T07:54:19;10.10;99.90
59469;DHT22;45277;52.768;18.262;2023-04-16T07:55:51;10.10;99.90
59469;DHT22;45277;52.768;18.262;2023-04-16T07:57:22;10.10;99.90
59469;DHT22;45277;52.768;18.262;2023-04-16T07:58:54;10.10;99.90
59469;DHT22;45277;52.768;18.262;2023-04-16T08:00:26;10.10;99.90
59469;DHT22;45277;52.768;18.262;2023-04-16T08:01:57;10.20;99.90
59469;DHT22;45277;52.768;18.262;2023-04-16T08:03:29;10.20;99.90
59469;DHT22;45277;52.768;18.262;2023-04-16T08:05:00;10.30;99.90
59469;DHT22;45277;52.768;18.262;2023-04-16T08:06:32;10.30;99.90
59469;DHT22;45277;52.768;18.262;2023-04-16T08:08:04;10.30;99.90
59469;DHT22;45277;52.768;18.262;2023-04-16T08:09:35;10.30;99.90
59469;DHT22;45277;52.768;18.262;2023-04-16T08:11:07;10.30;99.90
59469;DHT22;45277;52.768;18.262;2023-04-16T08:12:39;10.30;99.90
59469;DHT22;45277;52.768;18.262;2023-04-16T08:14:11;10.20;99.90
59469;DHT22;45277;52.768;18.262;2023-04-16T08:15:42;10.20;99.90
59469;DHT22;45277;52.768;18.262;2023-04-16T08:17:15;10.30;99.90
59469;DHT22;45277;52.768;18.262;2023-04-16T08:18:46;10.30;99.90
59469;DHT22;45277;52.768;18.262;2023-04-16T08:20:18;10.30;99.90
59469;DHT22;45277;52.768;18.262;2023-04-16T08:21:49;10.40;99.90
59469;DHT22;45277;52.768;18.262;2023-04-16T08:23:21;10.50;99.90
59469;DHT22;45277;52.768;18.262;2023-04-16T08:24:53;10.50;99.90
59469;DHT22;45277;52.768;18.262;2023-04-16T08:26:25;10.70;99.90
59469;DHT22;45277;52.768;18.262;2023-04-16T08:27:57;10.90;99.90
59469;DHT22;45277;52.768;18.262;2023-04-16T08:29:28;11.00;99.90
59469;DHT22;45277;52.768;18.262;2023-04-16T08:31:00;11.10;99.90
59469;DHT22;45277;52.768;18.262;2023-04-16T08:32:32;11.00;99.90
59469;DHT22;45277;52.768;18.262;2023-04-16T08:34:04;11.00;99.90
59469;DHT22;45277;52.768;18.262;2023-04-16T08:35:36;11.00;99.90
59469;DHT22;45277;52.768;18.262;2023-04-16T08:37:08;11.00;99.90
59469;DHT22;45277;52.768;18.262;2023-04-16T08:38:41;11.00;99.90
59469;DHT22;45277;52.768;18.262;2023-04-16T08:40:13;11.00;99.90
59469;DHT22;45277;52.768;18.262;2023-04-16T08:41:45;11.00;99.90
59469;DHT22;45277;52.768;18.262;2023-04-16T08:43:18;11.00;99.90
59469;DHT22;45277;52.768;18.262;2023-04-16T08:45:05;10.90;99.90
59469;DHT22;45277;52.768;18.262;2023-04-16T08:46:40;10.80;99.90
59469;DHT22;45277;52.768;18.262;2023-04-16T08:48:13;10.60;99.90
59469;DHT22;45277;52.768;18.262;2023-04-16T08:49:46;10.60;99.90
59469;DHT22;45277;52.768;18.262;2023-04-16T08:51:19;10.60;99.90
59469;DHT22;45277;52.768;18.262;2023-04-16T08:53:02;10.50;99.90
59469;DHT22;45277;52.768;18.262;2023-04-16T08:54:55;10.50;99.90
59469;DHT22;45277;52.768;18.262;2023-04-16T08:56:35;10.40;99.90
59469;DHT22;45277;52.768;18.262;2023-04-16T08:58:17;10.40;99.90
59469;DHT22;45277;52.768;18.262;2023-04-16T08:59:50;10.30;99.90
59469;DHT22;45277;52.768;18.262;2023-04-16T09:01:23;10.30;99.90
59469;DHT22;45277;52.768;18.262;2023-04-16T09:02:57;10.20;99.90
59469;DHT22;45277;52.768;18.262;2023-04-16T09:04:31;10.20;99.90
59469;DHT22;45277;52.768;18.262;2023-04-16T09:06:03;10.20;99.90
59469;DHT22;45277;52.768;18.262;2023-04-16T09:07:35;10.30;99.90
59469;DHT22;45277;52.768;18.262;2023-04-16T09:09:10;10.30;99.90
59469;DHT22;45277;52.768;18.262;2023-04-16T09:10:42;10.40;99.90
59469;DHT22;45277;52.768;18.262;2023-04-16T09:12:14;10.40;99.90
59469;DHT22;45277;52.768;18.262;2023-04-16T09:13:47;10.40;99.90
59469;DHT22;45277;52.768;18.262;2023-04-16T09:15:19;10.40;99.90
59469;DHT22;45277;52.768;18.262;2023-04-16T09:16:52;10.30;99.90
59469;DHT22;45277;52.768;18.262;2023-04-16T09:18:25;10.30;99.90
59469;DHT22;45277;52.768;18.262;2023-04-16T09:19:59;10.30;99.90
59469;DHT22;45277;52.768;18.262;2023-04-16T09:21:30;10.30;99.90
59469;DHT22;45277;52.768;18.262;2023-04-16T09:23:02;10.30;99.90
59469;DHT22;45277;52.768;18.262;2023-04-16T09:24:34;10.30;99.90
59469;DHT22;45277;52.768;18.262;2023-04-16T09:26:05;10.20;99.90
59469;DHT22;45277;52.768;18.262;2023-04-16T09:27:38;10.20;99.90
59469;DHT22;45277;52.768;18.262;2023-04-16T09:29:09;10.30;99.90
59469;DHT22;45277;52.768;18.262;2023-04-16T09:30:40;10.30;99.90
59469;DHT22;45277;52.768;18.262;2023-04-16T09:32:13;10.30;99.90
59469;DHT22;45277;52.768;18.262;2023-04-16T09:35:44;10.10;99.90
59469;DHT22;45277;52.768;18.262;2023-04-16T09:37:17;10.20;99.90
59469;DHT22;45277;52.768;18.262;2023-04-16T09:38:51;10.30;99.90
59469;DHT22;45277;52.768;18.262;2023-04-16T09:40:26;10.30;99.90
59469;DHT22;45277;52.768;18.262;2023-04-16T09:42:04;10.40;99.90